sensor_id;sensor_type;location;lat;lon;timestamp;P1;durP1;ratioP1;P2;durP2;ratioP2
63555;SDS011;49700;48.072;7.800;2022-08-19T00:00:13;11.73;;;10.53;;
63555;SDS011;49700;48.072;7.800;2022-08-19T00:02:39;12.87;;;11.10;;
63555;SDS011;49700;48.072;7.800;2022-08-19T00:05:07;14.33;;;10.53;;
63555;SDS011;49700;48.072;7.800;2022-08-19T00:07:33;12.33;;;11.00;;
63555;SDS011;49700;48.072;7.800;2022-08-19T00:09:58;12.33;;;9.90;;
63555;SDS011;49700;48.072;7.800;2022-08-19T00:12:24;14.47;;;11.33;;
63555;SDS011;49700;48.072;7.800;2022-08-19T00:14:49;13.90;;;11.50;;
63555;SDS011;49700;48.072;7.800;2022-08-19T00:17:15;13.83;;;11.70;;
63555;SDS011;49700;48.072;7.800;2022-08-19T00:19:40;14.73;;;11.87;;
63555;SDS011;49700;48.072;7.800;2022-08-19T00:22:06;13.00;;;10.90;;
63555;SDS011;49700;48.072;7.800;2022-08-19T00:24:33;12.70;;;11.20;;
63555;SDS011;49700;48.072;7.800;2022-08-19T00:27:00;13.93;;;11.23;;
63555;SDS011;49700;48.072;7.800;2022-08-19T00:29:26;14.83;;;12.50;;
63555;SDS011;49700;48.072;7.800;2022-08-19T00:31:53;14.87;;;11.93;;
63555;SDS011;49700;48.072;7.800;2022-08-19T00:34:20;12.70;;;11.13;;
63555;SDS011;49700;48.072;7.800;2022-08-19T00:36:46;13.87;;;11.23;;
63555;SDS011;49700;48.072;7.800;2022-08-19T00:39:13;16.43;;;12.50;;
63555;SDS011;49700;48.072;7.800;2022-08-19T00:41:41;12.80;;;11.00;;
63555;SDS011;49700;48.072;7.800;2022-08-19T00:44:12;12.23;;;11.13;;
63555;SDS011;49700;48.072;7.800;2022-08-19T00:46:41;11.23;;;10.10;;
63555;SDS011;49700;48.072;7.800;2022-08-19T00:49:20;12.13;;;9.60;;
63555;SDS011;49700;48.072;7.800;2022-08-19T00:51:51;12.40;;;9.63;;
63555;SDS011;49700;48.072;7.800;2022-08-19T00:54:20;11.57;;;10.40;;
63555;SDS011;49700;48.072;7.800;2022-08-19T00:56:47;11.57;;;10.20;;
63555;SDS011;49700;48.072;7.800;2022-08-19T00:59:14;10.17;;;9.17;;
63555;SDS011;49700;48.072;7.800;2022-08-19T01:01:42;14.40;;;9.93;;
63555;SDS011;49700;48.072;7.800;2022-08-19T01:04:09;11.00;;;9.90;;
63555;SDS011;49700;48.072;7.800;2022-08-19T01:06:36;11.50;;;10.27;;
63555;SDS011;49700;48.072;7.800;2022-08-19T01:09:03;11.23;;;9.20;;
63555;SDS011;49700;48.072;7.800;2022-08-19T01:11:30;11.80;;;9.97;;
63555;SDS011;49700;48.072;7.800;2022-08-19T01:13:58;12.43;;;9.83;;
63555;SDS011;49700;48.072;7.800;2022-08-19T01:16:25;11.83;;;9.83;;
63555;SDS011;49700;48.072;7.800;2022-08-19T01:18:54;11.67;;;10.47;;
63555;SDS011;49700;48.072;7.800;2022-08-19T01:23:50;13.40;;;11.97;;
63555;SDS011;49700;48.072;7.800;2022-08-19T01:26:20;13.33;;;11.93;;
63555;SDS011;49700;48.072;7.800;2022-08-19T01:28:49;12.20;;;10.73;;
63555;SDS011;49700;48.072;7.800;2022-08-19T01:31:18;11.80;;;9.83;;
63555;SDS011;49700;48.072;7.800;2022-08-19T01:33:47;11.67;;;10.50;;
63555;SDS011;49700;48.072;7.800;2022-08-19T01:36:14;12.17;;;10.87;;
63555;SDS011;49700;48.072;7.800;2022-08-19T01:38:47;12.67;;;11.30;;
63555;SDS011;49700;48.072;7.800;2022-08-19T01:41:14;12.90;;;11.57;;
63555;SDS011;49700;48.072;7.800;2022-08-19T01:43:40;16.73;;;12.90;;
63555;SDS011;49700;48.072;7.800;2022-08-19T01:46:05;15.13;;;12.23;;
63555;SDS011;49700;48.072;7.800;2022-08-19T01:48:38;13.60;;;11.57;;
63555;SDS011;49700;48.072;7.800;2022-08-19T01:51:05;14.00;;;11.40;;
63555;SDS011;49700;48.072;7.800;2022-08-19T01:53:31;13.40;;;12.00;;
63555;SDS011;49700;48.072;7.800;2022-08-19T01:55:57;13.73;;;12.33;;
63555;SDS011;49700;48.072;7.800;2022-08-19T01:58:38;13.53;;;12.10;;
63555;SDS011;49700;48.072;7.800;2022-08-19T02:01:11;17.30;;;11.80;;
63555;SDS011;49700;48.072;7.800;2022-08-19T02:03:36;14.13;;;10.10;;
63555;SDS011;49700;48.072;7.800;2022-08-19T02:06:02;14.07;;;10.90;;
63555;SDS011;49700;48.072;7.800;2022-08-19T02:08:31;14.13;;;12.63;;
63555;SDS011;49700;48.072;7.800;2022-08-19T02:10:59;10.87;;;9.70;;
63555;SDS011;49700;48.072;7.800;2022-08-19T02:13:25;13.77;;;10.90;;
63555;SDS011;49700;48.072;7.800;2022-08-19T02:15:51;13.33;;;11.93;;
63555;SDS011;49700;48.072;7.800;2022-08-19T02:18:17;11.50;;;9.90;;
63555;SDS011;49700;48.072;7.800;2022-08-19T02:20:42;12.60;;;11.30;;
63555;SDS011;49700;48.072;7.800;2022-08-19T02:23:09;13.90;;;10.70;;
63555;SDS011;49700;48.072;7.800;2022-08-19T02:25:36;13.37;;;11.17;;
63555;SDS011;49700;48.072;7.800;2022-08-19T02:28:02;11.37;;;10.17;;
63555;SDS011;49700;48.072;7.800;2022-08-19T02:30:27;13.17;;;10.30;;
63555;SDS011;49700;48.072;7.800;2022-08-19T02:32:53;17.20;;;13.47;;
63555;SDS011;49700;48.072;7.800;2022-08-19T02:35:18;12.90;;;11.50;;
63555;SDS011;49700;48.072;7.800;2022-08-19T02:37:44;15.50;;;12.40;;
63555;SDS011;49700;48.072;7.800;2022-08-19T02:40:29;13.07;;;11.20;;
63555;SDS011;49700;48.072;7.800;2022-08-19T02:42:58;13.57;;;12.17;;
63555;SDS011;49700;48.072;7.800;2022-08-19T02:45:24;17.00;;;12.30;;
63555;SDS011;49700;48.072;7.800;2022-08-19T02:47:49;12.23;;;10.63;;
63555;SDS011;49700;48.072;7.800;2022-08-19T02:50:15;13.60;;;11.60;;
63555;SDS011;49700;48.072;7.800;2022-08-19T02:52:41;14.63;;;12.27;;
63555;SDS011;49700;48.072;7.800;2022-08-19T02:55:06;15.00;;;13.50;;
63555;SDS011;49700;48.072;7.800;2022-08-19T02:57:32;19.37;;;13.13;;
63555;SDS011;49700;48.072;7.800;2022-08-19T02:59:59;14.47;;;12.97;;
63555;SDS011;49700;48.072;7.800;2022-08-19T03:02:25;14.60;;;12.50;;
63555;SDS011;49700;48.072;7.800;2022-08-19T03:04:50;17.90;;;13.87;;
63555;SDS011;49700;48.072;7.800;2022-08-19T03:07:16;14.30;;;12.87;;
63555;SDS011;49700;48.072;7.800;2022-08-19T03:09:43;14.10;;;12.40;;
63555;SDS011;49700;48.072;7.800;2022-08-19T03:12:09;15.50;;;12.50;;
63555;SDS011;49700;48.072;7.800;2022-08-19T03:14:34;13.90;;;12.17;;
63555;SDS011;49700;48.072;7.800;2022-08-19T03:17:01;20.50;;;13.43;;
63555;SDS011;49700;48.072;7.800;2022-08-19T03:19:26;16.87;;;14.00;;
63555;SDS011;49700;48.072;7.800;2022-08-19T03:21:52;15.37;;;13.40;;
63555;SDS011;49700;48.072;7.800;2022-08-19T03:24:18;15.00;;;13.20;;
63555;SDS011;49700;48.072;7.800;2022-08-19T03:26:48;20.10;;;15.30;;
63555;SDS011;49700;48.072;7.800;2022-08-19T03:29:17;16.60;;;13.30;;
63555;SDS011;49700;48.072;7.800;2022-08-19T03:31:44;17.17;;;13.63;;
63555;SDS011;49700;48.072;7.800;2022-08-19T03:34:10;15.33;;;12.93;;
63555;SDS011;49700;48.072;7.800;2022-08-19T03:36:43;21.10;;;13.90;;
63555;SDS011;49700;48.072;7.800;2022-08-19T03:39:09;17.43;;;13.00;;
63555;SDS011;49700;48.072;7.800;2022-08-19T03:41:39;18.40;;;13.50;;
63555;SDS011;49700;48.072;7.800;2022-08-19T03:44:06;17.70;;;13.30;;
63555;SDS011;49700;48.072;7.800;2022-08-19T03:46:33;16.60;;;11.83;;
63555;SDS011;49700;48.072;7.800;2022-08-19T03:49:00;13.80;;;12.30;;
63555;SDS011;49700;48.072;7.800;2022-08-19T03:51:32;15.80;;;13.70;;
63555;SDS011;49700;48.072;7.800;2022-08-19T03:54:02;17.87;;;14.47;;
63555;SDS011;49700;48.072;7.800;2022-08-19T03:56:29;16.07;;;13.87;;
63555;SDS011;49700;48.072;7.800;2022-08-19T03:58:56;15.83;;;13.60;;
63555;SDS011;49700;48.072;7.800;2022-08-19T04:01:23;17.63;;;15.63;;
63555;SDS011;49700;48.072;7.800;2022-08-19T04:03:51;18.20;;;13.27;;
63555;SDS011;49700;48.072;7.800;2022-08-19T04:08:46;16.00;;;14.20;;
63555;SDS011;49700;48.072;7.800;2022-08-19T04:11:13;16.50;;;14.47;;
63555;SDS011;49700;48.072;7.800;2022-08-19T04:13:42;17.10;;;14.20;;
63555;SDS011;49700;48.072;7.800;2022-08-19T04:16:10;16.20;;;14.27;;
63555;SDS011;49700;48.072;7.800;2022-08-19T04:18:36;15.17;;;12.90;;
63555;SDS011;49700;48.072;7.800;2022-08-19T04:21:04;20.63;;;16.93;;
63555;SDS011;49700;48.072;7.800;2022-08-19T04:23:30;15.60;;;14.10;;
63555;SDS011;49700;48.072;7.800;2022-08-19T04:25:56;18.50;;;16.43;;
63555;SDS011;49700;48.072;7.800;2022-08-19T04:28:23;15.60;;;13.93;;
63555;SDS011;49700;48.072;7.800;2022-08-19T04:30:50;17.67;;;14.37;;
63555;SDS011;49700;48.072;7.800;2022-08-19T04:33:19;16.80;;;14.17;;
63555;SDS011;49700;48.072;7.800;2022-08-19T04:35:48;20.17;;;14.47;;
63555;SDS011;49700;48.072;7.800;2022-08-19T04:38:15;18.70;;;14.60;;
63555;SDS011;49700;48.072;7.800;2022-08-19T04:40:43;16.37;;;14.17;;
63555;SDS011;49700;48.072;7.800;2022-08-19T04:43:28;17.80;;;14.67;;
63555;SDS011;49700;48.072;7.800;2022-08-19T04:45:54;18.47;;;16.33;;
63555;SDS011;49700;48.072;7.800;2022-08-19T04:48:19;17.70;;;15.90;;
63555;SDS011;49700;48.072;7.800;2022-08-19T04:50:51;17.53;;;15.40;;
63555;SDS011;49700;48.072;7.800;2022-08-19T04:53:26;19.70;;;15.40;;
63555;SDS011;49700;48.072;7.800;2022-08-19T04:55:54;20.50;;;16.30;;
63555;SDS011;49700;48.072;7.800;2022-08-19T04:58:24;20.57;;;15.67;;
63555;SDS011;49700;48.072;7.800;2022-08-19T05:00:51;19.20;;;16.80;;
63555;SDS011;49700;48.072;7.800;2022-08-19T05:03:16;21.30;;;16.83;;
63555;SDS011;49700;48.072;7.800;2022-08-19T05:05:46;26.40;;;18.53;;
63555;SDS011;49700;48.072;7.800;2022-08-19T05:08:15;20.90;;;17.60;;
63555;SDS011;49700;48.072;7.800;2022-08-19T05:10:50;22.50;;;17.30;;
63555;SDS011;49700;48.072;7.800;2022-08-19T05:13:17;18.70;;;16.43;;
63555;SDS011;49700;48.072;7.800;2022-08-19T05:15:53;20.47;;;17.43;;
63555;SDS011;49700;48.072;7.800;2022-08-19T05:18:20;22.23;;;17.00;;
63555;SDS011;49700;48.072;7.800;2022-08-19T05:21:06;21.87;;;16.53;;
63555;SDS011;49700;48.072;7.800;2022-08-19T05:23:51;24.50;;;18.67;;
63555;SDS011;49700;48.072;7.800;2022-08-19T05:26:17;23.50;;;17.83;;
63555;SDS011;49700;48.072;7.800;2022-08-19T05:28:42;21.03;;;17.60;;
63555;SDS011;49700;48.072;7.800;2022-08-19T05:31:08;24.30;;;18.20;;
63555;SDS011;49700;48.072;7.800;2022-08-19T05:33:33;21.70;;;15.67;;
63555;SDS011;49700;48.072;7.800;2022-08-19T05:35:59;22.20;;;15.93;;
63555;SDS011;49700;48.072;7.800;2022-08-19T05:38:26;20.73;;;15.90;;
63555;SDS011;49700;48.072;7.800;2022-08-19T05:40:52;20.57;;;17.20;;
63555;SDS011;49700;48.072;7.800;2022-08-19T05:43:17;22.53;;;15.63;;
63555;SDS011;49700;48.072;7.800;2022-08-19T05:45:43;22.97;;;18.50;;
63555;SDS011;49700;48.072;7.800;2022-08-19T05:48:10;25.10;;;16.93;;
63555;SDS011;49700;48.072;7.800;2022-08-19T05:50:37;19.50;;;14.90;;
63555;SDS011;49700;48.072;7.800;2022-08-19T05:53:03;18.63;;;16.10;;
63555;SDS011;49700;48.072;7.800;2022-08-19T05:55:29;22.70;;;15.20;;
63555;SDS011;49700;48.072;7.800;2022-08-19T05:57:54;16.53;;;14.07;;
63555;SDS011;49700;48.072;7.800;2022-08-19T06:00:20;18.97;;;14.57;;
63555;SDS011;49700;48.072;7.800;2022-08-19T06:02:45;18.97;;;14.73;;
63555;SDS011;49700;48.072;7.800;2022-08-19T06:05:11;18.10;;;15.17;;
63555;SDS011;49700;48.072;7.800;2022-08-19T06:07:37;16.80;;;14.47;;
63555;SDS011;49700;48.072;7.800;2022-08-19T06:10:04;18.53;;;16.03;;
63555;SDS011;49700;48.072;7.800;2022-08-19T06:12:31;19.90;;;15.90;;
63555;SDS011;49700;48.072;7.800;2022-08-19T06:14:59;17.67;;;14.93;;
63555;SDS011;49700;48.072;7.800;2022-08-19T06:17:30;16.53;;;14.37;;
63555;SDS011;49700;48.072;7.800;2022-08-19T06:19:56;15.60;;;13.40;;
63555;SDS011;49700;48.072;7.800;2022-08-19T06:22:21;15.13;;;13.33;;
63555;SDS011;49700;48.072;7.800;2022-08-19T06:24:47;18.67;;;14.57;;
63555;SDS011;49700;48.072;7.800;2022-08-19T06:27:12;19.47;;;14.97;;
63555;SDS011;49700;48.072;7.800;2022-08-19T06:29:38;17.40;;;14.33;;
63555;SDS011;49700;48.072;7.800;2022-08-19T06:32:03;18.20;;;15.80;;
63555;SDS011;49700;48.072;7.800;2022-08-19T06:34:30;16.13;;;12.80;;
63555;SDS011;49700;48.072;7.800;2022-08-19T06:36:58;17.40;;;15.40;;
63555;SDS011;49700;48.072;7.800;2022-08-19T06:39:26;16.93;;;14.00;;
63555;SDS011;49700;48.072;7.800;2022-08-19T06:41:56;14.43;;;12.93;;
63555;SDS011;49700;48.072;7.800;2022-08-19T06:44:28;17.83;;;13.13;;
63555;SDS011;49700;48.072;7.800;2022-08-19T06:47:00;21.30;;;13.83;;
63555;SDS011;49700;48.072;7.800;2022-08-19T06:49:27;18.47;;;14.43;;
63555;SDS011;49700;48.072;7.800;2022-08-19T06:51:55;17.97;;;12.50;;
63555;SDS011;49700;48.072;7.800;2022-08-19T06:54:22;15.50;;;12.23;;
63555;SDS011;49700;48.072;7.800;2022-08-19T06:56:48;14.43;;;12.90;;
63555;SDS011;49700;48.072;7.800;2022-08-19T06:59:15;14.80;;;13.23;;
63555;SDS011;49700;48.072;7.800;2022-08-19T07:01:43;18.15;;;15.32;;
63555;SDS011;49700;48.072;7.800;2022-08-19T07:04:12;20.60;;;15.90;;
63555;SDS011;49700;48.072;7.800;2022-08-19T07:06:42;13.70;;;12.30;;
63555;SDS011;49700;48.072;7.800;2022-08-19T07:09:09;14.07;;;12.63;;
63555;SDS011;49700;48.072;7.800;2022-08-19T07:11:37;15.30;;;12.00;;
63555;SDS011;49700;48.072;7.800;2022-08-19T07:14:03;13.43;;;12.13;;
63555;SDS011;49700;48.072;7.800;2022-08-19T07:16:28;14.30;;;12.60;;
63555;SDS011;49700;48.072;7.800;2022-08-19T07:18:54;16.83;;;13.33;;
63555;SDS011;49700;48.072;7.800;2022-08-19T07:21:22;13.83;;;12.40;;
63555;SDS011;49700;48.072;7.800;2022-08-19T07:23:51;14.63;;;12.30;;
63555;SDS011;49700;48.072;7.800;2022-08-19T07:26:19;15.90;;;12.80;;
63555;SDS011;49700;48.072;7.800;2022-08-19T07:28:47;19.17;;;12.97;;
63555;SDS011;49700;48.072;7.800;2022-08-19T07:31:15;15.50;;;12.63;;
63555;SDS011;49700;48.072;7.800;2022-08-19T07:33:46;16.77;;;13.17;;
63555;SDS011;49700;48.072;7.800;2022-08-19T07:36:13;15.17;;;12.90;;
63555;SDS011;49700;48.072;7.800;2022-08-19T07:38:41;16.53;;;13.27;;
63555;SDS011;49700;48.072;7.800;2022-08-19T07:41:10;17.17;;;14.47;;
63555;SDS011;49700;48.072;7.800;2022-08-19T07:43:37;16.30;;;12.70;;
63555;SDS011;49700;48.072;7.800;2022-08-19T07:46:03;12.93;;;11.53;;
63555;SDS011;49700;48.072;7.800;2022-08-19T07:48:29;14.17;;;11.87;;
63555;SDS011;49700;48.072;7.800;2022-08-19T07:50:56;16.10;;;12.93;;
63555;SDS011;49700;48.072;7.800;2022-08-19T07:53:24;17.27;;;13.00;;
63555;SDS011;49700;48.072;7.800;2022-08-19T07:55:50;13.60;;;11.30;;
63555;SDS011;49700;48.072;7.800;2022-08-19T07:58:18;15.83;;;12.63;;
63555;SDS011;49700;48.072;7.800;2022-08-19T08:00:46;14.53;;;12.03;;
63555;SDS011;49700;48.072;7.800;2022-08-19T08:03:14;14.70;;;12.50;;
63555;SDS011;49700;48.072;7.800;2022-08-19T08:05:42;15.23;;;11.50;;
63555;SDS011;49700;48.072;7.800;2022-08-19T08:08:27;14.97;;;12.73;;
63555;SDS011;49700;48.072;7.800;2022-08-19T08:11:12;13.87;;;12.57;;
63555;SDS011;49700;48.072;7.800;2022-08-19T08:13:38;18.27;;;14.13;;
63555;SDS011;49700;48.072;7.800;2022-08-19T08:16:06;18.30;;;14.40;;
63555;SDS011;49700;48.072;7.800;2022-08-19T08:18:32;16.73;;;13.93;;
63555;SDS011;49700;48.072;7.800;2022-08-19T08:20:59;16.03;;;13.57;;
63555;SDS011;49700;48.072;7.800;2022-08-19T08:23:24;17.77;;;13.97;;
63555;SDS011;49700;48.072;7.800;2022-08-19T08:25:51;17.13;;;14.27;;
63555;SDS011;49700;48.072;7.800;2022-08-19T08:28:20;20.27;;;14.83;;
63555;SDS011;49700;48.072;7.800;2022-08-19T08:30:46;19.27;;;15.83;;
63555;SDS011;49700;48.072;7.800;2022-08-19T08:33:13;17.48;;;15.68;;
63555;SDS011;49700;48.072;7.800;2022-08-19T08:35:41;15.40;;;13.80;;
63555;SDS011;49700;48.072;7.800;2022-08-19T08:38:07;17.40;;;14.30;;
63555;SDS011;49700;48.072;7.800;2022-08-19T08:43:26;16.03;;;14.37;;
63555;SDS011;49700;48.072;7.800;2022-08-19T08:46:04;15.63;;;14.00;;
63555;SDS011;49700;48.072;7.800;2022-08-19T08:50:59;16.40;;;13.43;;
63555;SDS011;49700;48.072;7.800;2022-08-19T08:53:28;16.70;;;14.50;;
63555;SDS011;49700;48.072;7.800;2022-08-19T08:55:55;17.23;;;14.13;;
63555;SDS011;49700;48.072;7.800;2022-08-19T08:58:25;18.40;;;14.40;;
63555;SDS011;49700;48.072;7.800;2022-08-19T09:01:09;16.80;;;15.03;;
63555;SDS011;49700;48.072;7.800;2022-08-19T09:03:36;19.55;;;16.55;;
63555;SDS011;49700;48.072;7.800;2022-08-19T09:06:07;19.97;;;17.07;;
63555;SDS011;49700;48.072;7.800;2022-08-19T09:08:55;17.10;;;15.30;;
63555;SDS011;49700;48.072;7.800;2022-08-19T09:16:44;19.50;;;14.83;;
63555;SDS011;49700;48.072;7.800;2022-08-19T09:19:09;17.70;;;15.87;;
63555;SDS011;49700;48.072;7.800;2022-08-19T09:21:35;20.07;;;17.80;;
63555;SDS011;49700;48.072;7.800;2022-08-19T09:24:02;24.00;;;16.87;;
63555;SDS011;49700;48.072;7.800;2022-08-19T09:26:29;21.60;;;16.83;;
63555;SDS011;49700;48.072;7.800;2022-08-19T09:28:57;21.80;;;17.30;;
63555;SDS011;49700;48.072;7.800;2022-08-19T09:31:25;19.87;;;16.60;;
63555;SDS011;49700;48.072;7.800;2022-08-19T09:33:52;22.27;;;19.88;;
63555;SDS011;49700;48.072;7.800;2022-08-19T09:36:22;18.57;;;16.67;;
63555;SDS011;49700;48.072;7.800;2022-08-19T09:38:49;19.70;;;16.57;;
63555;SDS011;49700;48.072;7.800;2022-08-19T09:41:18;17.63;;;15.60;;
63555;SDS011;49700;48.072;7.800;2022-08-19T09:43:45;19.60;;;15.70;;
63555;SDS011;49700;48.072;7.800;2022-08-19T09:46:12;19.53;;;17.37;;
63555;SDS011;49700;48.072;7.800;2022-08-19T09:48:39;21.60;;;17.87;;
63555;SDS011;49700;48.072;7.800;2022-08-19T09:51:06;20.20;;;15.47;;
63555;SDS011;49700;48.072;7.800;2022-08-19T09:53:36;22.40;;;16.90;;
63555;SDS011;49700;48.072;7.800;2022-08-19T09:56:03;22.00;;;17.17;;
63555;SDS011;49700;48.072;7.800;2022-08-19T09:58:31;21.33;;;14.80;;
63555;SDS011;49700;48.072;7.800;2022-08-19T10:00:58;20.50;;;18.30;;
63555;SDS011;49700;48.072;7.800;2022-08-19T10:03:25;20.17;;;16.37;;
63555;SDS011;49700;48.072;7.800;2022-08-19T10:05:51;20.73;;;16.70;;
63555;SDS011;49700;48.072;7.800;2022-08-19T10:08:31;20.37;;;16.97;;
63555;SDS011;49700;48.072;7.800;2022-08-19T10:10:58;18.57;;;15.97;;
63555;SDS011;49700;48.072;7.800;2022-08-19T10:13:25;17.73;;;15.80;;
63555;SDS011;49700;48.072;7.800;2022-08-19T10:15:53;21.50;;;18.30;;
63555;SDS011;49700;48.072;7.800;2022-08-19T10:18:21;19.37;;;16.57;;
63555;SDS011;49700;48.072;7.800;2022-08-19T10:20:47;19.90;;;17.50;;
63555;SDS011;49700;48.072;7.800;2022-08-19T10:23:14;18.03;;;15.40;;
63555;SDS011;49700;48.072;7.800;2022-08-19T10:25:40;22.07;;;16.57;;
63555;SDS011;49700;48.072;7.800;2022-08-19T10:28:07;19.17;;;15.83;;
63555;SDS011;49700;48.072;7.800;2022-08-19T10:30:34;18.83;;;16.07;;
63555;SDS011;49700;48.072;7.800;2022-08-19T10:33:00;20.83;;;17.90;;
63555;SDS011;49700;48.072;7.800;2022-08-19T10:35:25;20.90;;;16.67;;
63555;SDS011;49700;48.072;7.800;2022-08-19T10:37:53;18.83;;;16.60;;
63555;SDS011;49700;48.072;7.800;2022-08-19T10:40:18;20.10;;;16.33;;
63555;SDS011;49700;48.072;7.800;2022-08-19T10:42:44;19.90;;;17.60;;
63555;SDS011;49700;48.072;7.800;2022-08-19T10:45:09;22.57;;;17.70;;
63555;SDS011;49700;48.072;7.800;2022-08-19T10:47:35;19.50;;;16.80;;
63555;SDS011;49700;48.072;7.800;2022-08-19T10:50:01;18.93;;;15.47;;
63555;SDS011;49700;48.072;7.800;2022-08-19T10:52:47;18.57;;;16.00;;
63555;SDS011;49700;48.072;7.800;2022-08-19T10:55:14;19.73;;;17.60;;
63555;SDS011;49700;48.072;7.800;2022-08-19T10:57:57;19.70;;;17.67;;
63555;SDS011;49700;48.072;7.800;2022-08-19T11:00:24;17.67;;;15.80;;
63555;SDS011;49700;48.072;7.800;2022-08-19T11:02:50;19.67;;;16.90;;
63555;SDS011;49700;48.072;7.800;2022-08-19T11:05:16;18.27;;;15.80;;
63555;SDS011;49700;48.072;7.800;2022-08-19T11:07:42;19.10;;;16.37;;
63555;SDS011;49700;48.072;7.800;2022-08-19T11:10:10;18.40;;;16.47;;
63555;SDS011;49700;48.072;7.800;2022-08-19T11:12:37;18.70;;;15.57;;
63555;SDS011;49700;48.072;7.800;2022-08-19T11:15:06;20.83;;;16.63;;
63555;SDS011;49700;48.072;7.800;2022-08-19T11:17:34;18.70;;;16.87;;
63555;SDS011;49700;48.072;7.800;2022-08-19T11:20:00;18.90;;;16.80;;
63555;SDS011;49700;48.072;7.800;2022-08-19T11:22:29;18.53;;;16.57;;
63555;SDS011;49700;48.072;7.800;2022-08-19T11:24:54;24.43;;;18.27;;
63555;SDS011;49700;48.072;7.800;2022-08-19T11:27:20;19.67;;;17.43;;
63555;SDS011;49700;48.072;7.800;2022-08-19T11:29:45;20.00;;;17.70;;
63555;SDS011;49700;48.072;7.800;2022-08-19T11:32:11;19.00;;;16.50;;
63555;SDS011;49700;48.072;7.800;2022-08-19T11:34:37;20.40;;;15.60;;
63555;SDS011;49700;48.072;7.800;2022-08-19T11:37:04;23.00;;;17.60;;
63555;SDS011;49700;48.072;7.800;2022-08-19T11:39:31;18.67;;;16.77;;
63555;SDS011;49700;48.072;7.800;2022-08-19T11:41:59;19.90;;;17.80;;
63555;SDS011;49700;48.072;7.800;2022-08-19T11:44:25;19.93;;;16.03;;
63555;SDS011;49700;48.072;7.800;2022-08-19T11:46:51;23.47;;;20.97;;
63555;SDS011;49700;48.072;7.800;2022-08-19T11:49:18;21.67;;;18.77;;
63555;SDS011;49700;48.072;7.800;2022-08-19T11:51:44;21.20;;;18.90;;
63555;SDS011;49700;48.072;7.800;2022-08-19T11:54:11;21.63;;;18.10;;
63555;SDS011;49700;48.072;7.800;2022-08-19T11:56:38;20.50;;;17.33;;
63555;SDS011;49700;48.072;7.800;2022-08-19T11:59:04;24.60;;;19.97;;
63555;SDS011;49700;48.072;7.800;2022-08-19T12:01:30;24.43;;;19.47;;
63555;SDS011;49700;48.072;7.800;2022-08-19T12:03:56;22.57;;;18.67;;
63555;SDS011;49700;48.072;7.800;2022-08-19T12:06:23;23.17;;;20.30;;
63555;SDS011;49700;48.072;7.800;2022-08-19T12:08:53;20.03;;;17.80;;
63555;SDS011;49700;48.072;7.800;2022-08-19T12:11:22;18.47;;;16.53;;
63555;SDS011;49700;48.072;7.800;2022-08-19T12:13:51;19.47;;;17.47;;
63555;SDS011;49700;48.072;7.800;2022-08-19T12:16:18;20.80;;;17.53;;
63555;SDS011;49700;48.072;7.800;2022-08-19T12:18:46;21.20;;;18.40;;
63555;SDS011;49700;48.072;7.800;2022-08-19T12:21:13;19.13;;;17.10;;
63555;SDS011;49700;48.072;7.800;2022-08-19T12:23:40;19.50;;;17.50;;
63555;SDS011;49700;48.072;7.800;2022-08-19T12:26:06;17.97;;;16.13;;
63555;SDS011;49700;48.072;7.800;2022-08-19T12:28:31;21.23;;;16.03;;
63555;SDS011;49700;48.072;7.800;2022-08-19T12:30:57;19.03;;;17.03;;
63555;SDS011;49700;48.072;7.800;2022-08-19T12:33:22;19.00;;;15.87;;
63555;SDS011;49700;48.072;7.800;2022-08-19T12:35:51;20.33;;;18.17;;
63555;SDS011;49700;48.072;7.800;2022-08-19T12:38:17;20.73;;;18.03;;
63555;SDS011;49700;48.072;7.800;2022-08-19T12:40:46;18.33;;;16.43;;
63555;SDS011;49700;48.072;7.800;2022-08-19T12:43:12;19.30;;;15.43;;
63555;SDS011;49700;48.072;7.800;2022-08-19T12:45:41;17.87;;;16.07;;
63555;SDS011;49700;48.072;7.800;2022-08-19T12:48:07;22.57;;;17.10;;
63555;SDS011;49700;48.072;7.800;2022-08-19T12:50:33;21.60;;;16.30;;
63555;SDS011;49700;48.072;7.800;2022-08-19T12:52:58;20.43;;;18.33;;
63555;SDS011;49700;48.072;7.800;2022-08-19T12:55:24;17.43;;;15.77;;
63555;SDS011;49700;48.072;7.800;2022-08-19T12:57:50;17.30;;;15.50;;
63555;SDS011;49700;48.072;7.800;2022-08-19T13:00:16;17.37;;;15.57;;
63555;SDS011;49700;48.072;7.800;2022-08-19T13:02:47;17.40;;;15.60;;
63555;SDS011;49700;48.072;7.800;2022-08-19T13:05:17;19.20;;;16.70;;
63555;SDS011;49700;48.072;7.800;2022-08-19T13:07:48;19.50;;;16.37;;
63555;SDS011;49700;48.072;7.800;2022-08-19T13:10:15;16.40;;;14.80;;
63555;SDS011;49700;48.072;7.800;2022-08-19T13:12:42;20.13;;;16.00;;
63555;SDS011;49700;48.072;7.800;2022-08-19T13:15:13;15.30;;;13.70;;
63555;SDS011;49700;48.072;7.800;2022-08-19T13:17:40;15.80;;;14.27;;
63555;SDS011;49700;48.072;7.800;2022-08-19T13:20:07;16.70;;;14.90;;
63555;SDS011;49700;48.072;7.800;2022-08-19T13:22:34;16.70;;;14.97;;
63555;SDS011;49700;48.072;7.800;2022-08-19T13:25:01;15.60;;;14.20;;
63555;SDS011;49700;48.072;7.800;2022-08-19T13:27:27;16.23;;;14.50;;
63555;SDS011;49700;48.072;7.800;2022-08-19T13:29:54;15.67;;;14.00;;
63555;SDS011;49700;48.072;7.800;2022-08-19T13:32:38;14.90;;;13.50;;
63555;SDS011;49700;48.072;7.800;2022-08-19T13:35:21;16.13;;;14.43;;
63555;SDS011;49700;48.072;7.800;2022-08-19T13:37:47;15.60;;;13.77;;
63555;SDS011;49700;48.072;7.800;2022-08-19T13:40:20;15.13;;;13.47;;
63555;SDS011;49700;48.072;7.800;2022-08-19T13:42:49;14.43;;;12.93;;
63555;SDS011;49700;48.072;7.800;2022-08-19T13:45:17;13.77;;;12.47;;
63555;SDS011;49700;48.072;7.800;2022-08-19T13:47:52;12.57;;;11.27;;
63555;SDS011;49700;48.072;7.800;2022-08-19T13:50:21;13.80;;;12.00;;
63555;SDS011;49700;48.072;7.800;2022-08-19T13:52:50;14.83;;;13.33;;
63555;SDS011;49700;48.072;7.800;2022-08-19T13:55:16;14.10;;;12.70;;
63555;SDS011;49700;48.072;7.800;2022-08-19T13:57:42;11.50;;;10.50;;
63555;SDS011;49700;48.072;7.800;2022-08-19T14:00:09;12.97;;;11.80;;
63555;SDS011;49700;48.072;7.800;2022-08-19T14:02:38;14.30;;;12.90;;
63555;SDS011;49700;48.072;7.800;2022-08-19T14:05:05;12.07;;;10.97;;
63555;SDS011;49700;48.072;7.800;2022-08-19T14:07:32;15.87;;;12.30;;
63555;SDS011;49700;48.072;7.800;2022-08-19T14:09:58;13.37;;;12.27;;
63555;SDS011;49700;48.072;7.800;2022-08-19T14:12:23;13.07;;;11.77;;
63555;SDS011;49700;48.072;7.800;2022-08-19T14:14:48;12.37;;;11.17;;
63555;SDS011;49700;48.072;7.800;2022-08-19T14:17:14;13.10;;;11.90;;
63555;SDS011;49700;48.072;7.800;2022-08-19T14:19:40;13.13;;;11.83;;
63555;SDS011;49700;48.072;7.800;2022-08-19T14:22:06;12.50;;;11.37;;
63555;SDS011;49700;48.072;7.800;2022-08-19T14:24:32;13.10;;;11.77;;
63555;SDS011;49700;48.072;7.800;2022-08-19T14:26:58;13.33;;;12.23;;
63555;SDS011;49700;48.072;7.800;2022-08-19T14:29:23;14.17;;;12.70;;
63555;SDS011;49700;48.072;7.800;2022-08-19T14:31:49;13.33;;;11.93;;
63555;SDS011;49700;48.072;7.800;2022-08-19T14:34:14;13.67;;;12.47;;
63555;SDS011;49700;48.072;7.800;2022-08-19T14:36:40;12.40;;;11.20;;
63555;SDS011;49700;48.072;7.800;2022-08-19T14:39:06;13.90;;;10.57;;